メインページ
METAR-TAF:

METAR-TAF

空港 :

ルクセンブルク-フィンデル空港

ルクセンブルク, ルクセンブルク

緯度: 49-37N, 経度: 006-13E, 海抜: 376m

現時点の気象観測

当レポートは15分前の06:20(UTC)に作成
南西の風 17kt、最大27ktの突風を伴う、南/南西から西の間で変化する
気温 9°C
湿度 87%
気圧 999 hPa
視程10km以上
高度1500ftの雲は散在している
高度2000ftの千切れ雲あり

METAR: ELLX 150620Z 23017G27KT 200V260 9999 SCT015 BKN020 09/07 Q0999 TEMPO 24020G35KT

時間: 07:35 (06:35 UTC)

予報

当レポートは1時間35分前の05:00(UTC)に作成
予報は15日の 06時(UTC)から 16日の 12時(UTC)まで有効
南西の風 18kt、最大30ktの突風を伴う
視程10km以上
高度1500ftの千切れ雲あり
15日の 06時(UTC)から 15日の 10時(UTC)まで一時的に
西/南西の風 18kt、最大38ktの突風を伴う
視程: 3000m
高度1200ftの雲は散在している, 積乱雲.
高度1200ftの千切れ雲あり
にわか雨
15日の 10時(UTC)から 15日の 12時(UTC)まで徐々に
南西の風 8kt
高度2000ftの雲は散在している
確率 40% :
15日の 12時(UTC)から 15日の 18時(UTC)まで一時的に
視程: 4000m
高度1200ftの雲は散在している, 塔状積雲.
弱いにわか雨
15日の 21時(UTC)から 15日の 23時(UTC)まで徐々に
視程: 3000m
高度400ftの千切れ雲あり
小霧雨, 靄

TAF: ELLX 150500Z 1506/1612 22018G30KT 9999 BKN015 TEMPO 1506/1510 24018G38KT 3000 SHRA SCT012CB BKN012 BECMG 1510/1512 23008KT SCT020 PROB40 TEMPO 1512/1518 4000 -SHRA SCT012TCU BECMG 1521/1523 3000 -DZ BR BKN004

4,000以上の空港の気象観測と天気予報(METAR報とTAF報)

利用可能な観測所は地図上に黄色い丸と赤い丸で示す。

丸の上にカーソルを重ねると観測所名を参照できる。

次にクリックすると気象観測と天気予報を参照できる。

マップの切り替え:黒色「×」印の緑ボタンをクリックして拡大、「-」印の緑ボタンをクリックして縮小、緑色の三角印をクリックして隣りの地図に切り替え


METAR-TAF: